createdAt,value
2017-06-04T00:02:21.756Z,97.40
2017-06-04T00:04:54.683Z,97.50
2017-06-04T00:07:27.501Z,97.40
2017-06-04T00:10:00.637Z,97.20
2017-06-04T00:12:33.252Z,97.30
2017-06-04T00:15:06.233Z,97.30
2017-06-04T00:17:39.183Z,97.50
2017-06-04T00:20:12.376Z,97.60
2017-06-04T00:22:45.407Z,97.80
2017-06-04T00:25:18.399Z,97.70
2017-06-04T00:27:51.411Z,97.80
2017-06-04T00:30:21.469Z,97.90
2017-06-04T00:32:54.291Z,97.90
2017-06-04T00:35:27.079Z,97.90
2017-06-04T00:37:59.971Z,97.80
2017-06-04T00:40:33.084Z,97.90
2017-06-04T00:43:05.820Z,98.00
2017-06-04T00:45:38.645Z,98.10
2017-06-04T00:48:11.766Z,97.90
2017-06-04T00:50:44.804Z,97.70
2017-06-04T00:53:17.975Z,97.50
2017-06-04T00:55:50.891Z,97.60
2017-06-04T00:58:23.591Z,97.40
2017-06-04T01:00:56.635Z,97.30
2017-06-04T01:03:29.391Z,97.40
2017-06-04T01:06:02.123Z,97.30
2017-06-04T01:08:35.123Z,97.30
2017-06-04T01:11:07.988Z,97.30
2017-06-04T01:13:40.887Z,97.50
2017-06-04T01:16:13.984Z,97.40
2017-06-04T01:18:46.811Z,97.50
2017-06-04T01:21:19.727Z,97.60
2017-06-04T01:23:52.775Z,97.70
2017-06-04T01:26:25.719Z,97.70
2017-06-04T01:28:58.736Z,97.70
2017-06-04T01:31:32.018Z,97.70
2017-06-04T01:34:04.536Z,97.60
2017-06-04T01:36:37.693Z,97.50
2017-06-04T01:39:10.612Z,97.60
2017-06-04T01:41:42.819Z,97.30
2017-06-04T01:44:15.647Z,97.60
2017-06-04T01:46:48.547Z,97.60
2017-06-04T01:49:21.475Z,97.70
2017-06-04T01:51:54.359Z,97.70
2017-06-04T01:54:27.371Z,97.70
2017-06-04T01:57:00.100Z,97.40
2017-06-04T01:59:33.003Z,97.50
2017-06-04T02:02:05.743Z,97.40
2017-06-04T02:04:38.583Z,97.50
2017-06-04T02:07:11.491Z,97.80
2017-06-04T02:09:44.372Z,97.80
2017-06-04T02:12:17.511Z,98.00
2017-06-04T02:14:50.583Z,98.00
2017-06-04T02:17:23.539Z,97.70
2017-06-04T02:19:55.900Z,97.70
2017-06-04T02:22:28.871Z,97.50
2017-06-04T02:25:02.036Z,97.60
2017-06-04T02:27:34.659Z,97.70
2017-06-04T02:30:07.465Z,97.70
2017-06-04T02:32:40.480Z,97.70
2017-06-04T02:35:13.396Z,97.70
2017-06-04T02:37:53.159Z,97.70
2017-06-04T02:40:26.289Z,97.40
2017-06-04T02:42:59.144Z,97.10
2017-06-04T02:45:32.027Z,97.50
2017-06-04T02:48:04.791Z,97.50
2017-06-04T02:50:37.911Z,97.60
2017-06-04T02:53:10.558Z,97.40
2017-06-04T02:55:43.579Z,97.30
2017-06-04T02:58:15.783Z,97.00
2017-06-04T03:00:48.747Z,97.00
2017-06-04T03:03:21.696Z,96.80
2017-06-04T03:05:54.796Z,96.70
2017-06-04T03:08:27.856Z,96.20
2017-06-04T03:11:00.634Z,96.50
2017-06-04T03:13:33.551Z,96.40
2017-06-04T03:16:06.163Z,96.40
2017-06-04T03:18:39.219Z,96.30
2017-06-04T03:21:11.999Z,96.40
2017-06-04T03:23:45.071Z,96.50
2017-06-04T03:26:17.993Z,96.00
2017-06-04T03:28:51.143Z,96.30
2017-06-04T03:31:23.887Z,96.60
2017-06-04T03:33:56.875Z,96.80
2017-06-04T03:36:29.764Z,96.30
2017-06-04T03:39:02.739Z,96.40
2017-06-04T03:41:35.704Z,96.30
2017-06-04T03:44:08.836Z,96.50
2017-06-04T03:46:41.631Z,96.80
2017-06-04T03:49:14.657Z,96.70
2017-06-04T03:51:47.604Z,97.10
2017-06-04T03:54:20.632Z,97.20
2017-06-04T03:56:53.340Z,97.60
2017-06-04T03:59:26.352Z,97.00
2017-06-04T04:01:59.176Z,96.60
2017-06-04T04:04:32.191Z,96.90
2017-06-04T04:07:05.230Z,97.00
2017-06-04T04:09:38.316Z,96.30
2017-06-04T04:12:11.018Z,96.60
2017-06-04T04:14:43.863Z,97.00
2017-06-04T04:17:13.321Z,97.10
2017-06-04T04:19:46.103Z,97.00
2017-06-04T04:22:19.035Z,97.00
2017-06-04T04:24:52.215Z,97.10
2017-06-04T04:27:25.262Z,96.70
2017-06-04T04:29:58.348Z,96.80
2017-06-04T04:32:31.573Z,96.70
2017-06-04T04:35:03.919Z,96.60
2017-06-04T04:37:36.807Z,96.50
2017-06-04T04:40:09.755Z,96.40
2017-06-04T04:42:42.879Z,96.30
2017-06-04T04:45:15.894Z,95.80
2017-06-04T04:47:48.817Z,95.50
2017-06-04T04:50:21.870Z,95.70
2017-06-04T04:52:54.793Z,95.70
2017-06-04T04:55:27.629Z,96.20
2017-06-04T04:58:00.448Z,96.20
2017-06-04T05:00:33.301Z,96.10
2017-06-04T05:03:06.228Z,95.80
2017-06-04T05:05:39.239Z,95.70
2017-06-04T05:08:12.223Z,95.60
2017-06-04T05:10:45.147Z,94.50
2017-06-04T05:13:17.343Z,94.80
2017-06-04T05:15:49.995Z,95.40
2017-06-04T05:18:22.272Z,95.20
2017-06-04T05:20:55.180Z,95.30
2017-06-04T05:23:28.223Z,95.70
2017-06-04T05:26:11.902Z,94.50
2017-06-04T05:28:50.283Z,94.80
2017-06-04T05:31:23.263Z,95.00
2017-06-04T05:33:56.033Z,94.80
2017-06-04T05:36:28.967Z,95.00
2017-06-04T05:39:06.011Z,95.00
2017-06-04T05:41:39.067Z,94.90
2017-06-04T05:44:11.951Z,94.90
2017-06-04T05:46:44.860Z,95.10
2017-06-04T05:49:17.540Z,94.80
2017-06-04T05:51:50.353Z,95.10
2017-06-04T05:54:23.120Z,95.30
2017-06-04T05:56:56.083Z,95.20
2017-06-04T05:59:28.955Z,94.10
2017-06-04T06:02:01.815Z,95.10
2017-06-04T06:04:34.096Z,95.10
2017-06-04T06:07:06.959Z,93.90
2017-06-04T06:09:39.819Z,94.40
2017-06-04T06:12:12.847Z,94.80
2017-06-04T06:14:45.827Z,95.00
2017-06-04T06:17:18.855Z,94.20
2017-06-04T06:19:51.564Z,93.50
2017-06-04T06:22:24.535Z,92.70
2017-06-04T06:24:57.436Z,95.00
2017-06-04T06:27:30.171Z,94.40
2017-06-04T06:30:03.141Z,94.70
2017-06-04T06:32:36.111Z,93.90
2017-06-04T06:35:09.200Z,94.80
2017-06-04T06:37:42.251Z,94.10
2017-06-04T06:40:15.363Z,94.80
2017-06-04T06:42:48.395Z,94.70
2017-06-04T06:45:21.347Z,94.00
2017-06-04T06:47:54.315Z,94.50
2017-06-04T06:50:27.020Z,94.90
2017-06-04T06:53:00.263Z,93.50
2017-06-04T06:55:32.879Z,93.30
2017-06-04T06:58:05.795Z,93.80
2017-06-04T07:00:38.763Z,92.50
2017-06-04T07:03:11.927Z,92.50
2017-06-04T07:05:44.567Z,92.00
2017-06-04T07:08:17.488Z,92.00
2017-06-04T07:10:50.373Z,91.30
2017-06-04T07:13:23.255Z,89.90
2017-06-04T07:15:56.163Z,90.50
2017-06-04T07:18:29.159Z,91.10
2017-06-04T07:21:03.133Z,91.60
2017-06-04T07:23:36.119Z,89.80
2017-06-04T07:26:09.047Z,90.50
2017-06-04T07:28:41.947Z,91.30
2017-06-04T07:31:14.819Z,90.00
2017-06-04T07:33:47.808Z,91.50
2017-06-04T07:36:20.955Z,88.80
2017-06-04T07:38:53.960Z,85.40
2017-06-04T07:41:26.923Z,87.90
2017-06-04T07:43:59.834Z,83.90
2017-06-04T07:46:32.856Z,88.80
2017-06-04T07:49:05.792Z,90.30
2017-06-04T07:51:38.591Z,87.30
2017-06-04T07:54:11.775Z,90.10
2017-06-04T07:56:44.607Z,91.50
2017-06-04T07:59:17.494Z,91.70
2017-06-04T08:01:50.080Z,90.50
2017-06-04T08:04:23.076Z,88.10
2017-06-04T08:06:56.118Z,91.90
2017-06-04T08:09:28.947Z,90.30
2017-06-04T08:12:02.067Z,88.10
2017-06-04T08:14:34.856Z,86.10
2017-06-04T08:17:07.457Z,85.20
2017-06-04T08:19:40.619Z,88.10
2017-06-04T08:22:13.360Z,87.20
2017-06-04T08:24:46.081Z,88.50
2017-06-04T08:27:18.883Z,88.00
2017-06-04T08:29:51.963Z,80.30
2017-06-04T08:32:25.075Z,79.60
2017-06-04T08:34:58.016Z,81.90
2017-06-04T08:37:30.875Z,79.70
2017-06-04T08:40:03.898Z,80.60
2017-06-04T08:42:36.675Z,80.90
2017-06-04T08:45:09.596Z,84.00
2017-06-04T08:47:42.639Z,84.60
2017-06-04T08:50:15.816Z,77.50
2017-06-04T08:52:48.798Z,76.00
2017-06-04T08:55:21.804Z,80.10
2017-06-04T08:57:51.747Z,82.70
2017-06-04T09:00:24.503Z,81.80
2017-06-04T09:02:57.351Z,81.00
2017-06-04T09:05:30.259Z,76.10
2017-06-04T09:08:03.208Z,80.70
2017-06-04T09:10:36.142Z,82.70
2017-06-04T09:13:09.020Z,82.10
2017-06-04T09:15:41.980Z,85.40
2017-06-04T09:18:15.003Z,83.30
2017-06-04T09:20:47.684Z,81.50
2017-06-04T09:23:20.561Z,77.60
2017-06-04T09:25:53.419Z,73.90
2017-06-04T09:28:26.311Z,65.60
2017-06-04T09:30:59.084Z,61.70
2017-06-04T09:33:28.517Z,63.50
2017-06-04T09:36:01.745Z,65.60
2017-06-04T09:38:34.279Z,59.40
2017-06-04T09:41:07.023Z,64.50
2017-06-04T09:43:37.199Z,61.50
2017-06-04T09:46:06.882Z,58.60
2017-06-04T09:48:39.423Z,56.90
2017-06-04T09:51:12.559Z,53.30
2017-06-04T09:53:45.584Z,49.30
2017-06-04T09:56:18.336Z,55.80
2017-06-04T09:58:52.243Z,55.00
2017-06-04T10:01:25.199Z,53.10
2017-06-04T10:03:55.315Z,58.30
2017-06-04T10:06:28.055Z,56.80
2017-06-04T10:09:00.864Z,58.00
2017-06-04T10:11:33.715Z,60.00
2017-06-04T10:14:06.548Z,54.10
2017-06-04T10:16:39.315Z,57.80
2017-06-04T10:19:12.248Z,57.60
2017-06-04T10:21:45.323Z,56.60
2017-06-04T10:24:18.319Z,59.00
2017-06-04T10:26:51.051Z,57.80
2017-06-04T10:29:24.071Z,56.50
2017-06-04T10:31:57.019Z,56.20
2017-06-04T10:34:29.647Z,53.60
2017-06-04T10:37:02.819Z,55.20
2017-06-04T10:39:35.261Z,56.00
2017-06-04T10:42:08.179Z,54.70
2017-06-04T10:44:40.891Z,53.00
2017-06-04T10:47:13.836Z,54.40
2017-06-04T10:49:43.699Z,61.50
2017-06-04T10:52:16.103Z,60.70
2017-06-04T10:54:48.884Z,64.50
2017-06-04T10:57:21.907Z,53.30
2017-06-04T10:59:55.031Z,54.00
2017-06-04T11:02:27.953Z,53.50
2017-06-04T11:05:00.587Z,53.60
2017-06-04T11:07:33.327Z,57.60
2017-06-04T11:10:06.168Z,54.80
2017-06-04T11:12:39.107Z,49.20
2017-06-04T11:15:11.701Z,45.80
2017-06-04T11:17:44.555Z,54.90
2017-06-04T11:20:17.123Z,58.10
2017-06-04T11:22:50.266Z,49.60
2017-06-04T11:25:22.956Z,45.60
2017-06-04T11:27:55.944Z,47.30
2017-06-04T11:30:30.788Z,53.70
2017-06-04T11:33:03.556Z,54.00
2017-06-04T11:35:36.363Z,55.00
2017-06-04T11:38:09.387Z,50.20
2017-06-04T11:40:41.616Z,50.00
2017-06-04T11:43:14.479Z,54.20
2017-06-04T11:45:47.301Z,56.20
2017-06-04T11:48:20.284Z,48.40
2017-06-04T11:50:53.111Z,49.50
2017-06-04T11:53:26.215Z,46.60
2017-06-04T11:55:59.078Z,46.00
2017-06-04T11:58:32.215Z,51.80
2017-06-04T12:01:04.775Z,50.40
2017-06-04T12:03:37.715Z,46.30
2017-06-04T12:06:10.457Z,49.60
2017-06-04T12:08:43.335Z,44.10
2017-06-04T12:11:16.103Z,51.60
2017-06-04T12:13:49.141Z,47.00
2017-06-04T12:16:22.143Z,46.80
2017-06-04T12:18:55.384Z,51.10
2017-06-04T12:21:27.973Z,45.00
2017-06-04T12:24:00.803Z,51.30
2017-06-04T12:26:33.647Z,47.90
2017-06-04T12:29:06.584Z,44.30
2017-06-04T12:31:39.519Z,44.30
2017-06-04T12:34:12.432Z,47.70
2017-06-04T12:36:45.279Z,49.60
2017-06-04T12:39:18.472Z,47.60
2017-06-04T12:41:51.161Z,44.30
2017-06-04T12:44:24.127Z,43.90
2017-06-04T12:46:56.851Z,46.00
2017-06-04T12:49:29.886Z,45.60
2017-06-04T12:52:02.819Z,49.10
2017-06-04T12:54:37.595Z,50.70
2017-06-04T12:57:10.415Z,50.90
2017-06-04T12:59:43.333Z,47.90
2017-06-04T13:02:16.536Z,50.00
2017-06-04T13:04:49.508Z,48.00
2017-06-04T13:07:22.839Z,49.00
2017-06-04T13:09:55.391Z,48.60
2017-06-04T13:12:28.308Z,50.40
2017-06-04T13:15:02.185Z,51.00
2017-06-04T13:17:35.283Z,54.70
2017-06-04T13:20:08.275Z,50.60
2017-06-04T13:22:41.188Z,54.70
2017-06-04T13:25:14.071Z,48.20
2017-06-04T13:27:46.867Z,49.90
2017-06-04T13:30:19.967Z,46.00
2017-06-04T13:32:52.888Z,46.80
2017-06-04T13:35:25.931Z,49.00
2017-06-04T13:37:58.895Z,35.70
2017-06-04T13:40:31.971Z,33.20
2017-06-04T13:43:04.649Z,27.30
2017-06-04T13:45:38.379Z,27.70
2017-06-04T13:48:11.171Z,21.70
2017-06-04T13:50:44.203Z,24.00
2017-06-04T13:53:16.968Z,20.60
2017-06-04T13:55:49.591Z,19.90
2017-06-04T13:58:22.750Z,20.80
2017-06-04T14:00:55.396Z,23.40
2017-06-04T14:03:28.364Z,25.10
2017-06-04T14:06:01.967Z,28.60
2017-06-04T14:08:35.028Z,31.90
2017-06-04T14:11:08.331Z,32.10
2017-06-04T14:13:40.943Z,38.90
2017-06-04T14:16:13.887Z,36.90
2017-06-04T14:18:47.059Z,33.70
2017-06-04T14:21:19.495Z,34.70
2017-06-04T14:23:52.603Z,34.10
2017-06-04T14:26:25.407Z,30.60
2017-06-04T14:28:58.427Z,27.30
2017-06-04T14:31:31.275Z,25.30
2017-06-04T14:34:05.064Z,25.80
2017-06-04T14:36:38.024Z,26.20
2017-06-04T14:39:10.739Z,29.20
2017-06-04T14:41:43.539Z,32.00
2017-06-04T14:44:16.384Z,34.80
2017-06-04T14:46:49.511Z,36.90
2017-06-04T14:49:19.487Z,37.70
2017-06-04T14:51:52.432Z,43.20
2017-06-04T14:54:25.467Z,42.90
2017-06-04T14:56:58.371Z,43.90
2017-06-04T14:59:31.213Z,45.10
2017-06-04T15:02:04.090Z,45.80
2017-06-04T15:04:37.561Z,46.40
2017-06-04T15:07:10.152Z,43.90
2017-06-04T15:09:42.966Z,48.80
2017-06-04T15:12:16.015Z,37.30
2017-06-04T15:14:48.699Z,41.30
2017-06-04T15:17:21.776Z,44.30
2017-06-04T15:19:54.780Z,43.30
2017-06-04T15:22:27.920Z,44.20
2017-06-04T15:25:00.883Z,41.80
2017-06-04T15:27:34.103Z,45.40
2017-06-04T15:30:07.428Z,47.70
2017-06-04T15:32:39.735Z,43.60
2017-06-04T15:35:12.854Z,46.80
2017-06-04T15:37:46.335Z,39.50
2017-06-04T15:40:19.755Z,41.20
2017-06-04T15:42:52.841Z,41.70
2017-06-04T15:45:25.463Z,38.60
2017-06-04T15:47:58.279Z,40.80
2017-06-04T15:50:31.207Z,39.40
2017-06-04T15:53:03.959Z,40.70
2017-06-04T15:55:36.691Z,42.20
2017-06-04T15:58:09.564Z,40.70
2017-06-04T16:00:42.346Z,39.50
2017-06-04T16:03:15.377Z,40.30
2017-06-04T16:05:48.170Z,37.20
2017-06-04T16:08:20.937Z,40.70
2017-06-04T16:10:53.975Z,35.60
2017-06-04T16:13:26.968Z,36.00
2017-06-04T16:16:00.083Z,34.40
2017-06-04T16:18:32.987Z,37.20
2017-06-04T16:21:05.879Z,35.40
2017-06-04T16:23:38.831Z,37.00
2017-06-04T16:26:11.692Z,38.30
2017-06-04T16:28:44.723Z,36.60
2017-06-04T16:31:16.955Z,38.50
2017-06-04T16:33:49.915Z,36.70
2017-06-04T16:36:22.847Z,38.00
2017-06-04T16:38:55.819Z,40.50
2017-06-04T16:41:28.884Z,40.40
2017-06-04T16:44:02.263Z,36.60
2017-06-04T16:46:34.743Z,39.10
2017-06-04T16:49:07.847Z,37.90
2017-06-04T16:51:38.003Z,39.30
2017-06-04T16:54:10.403Z,44.30
2017-06-04T16:56:44.283Z,43.20
2017-06-04T16:59:17.443Z,44.80
2017-06-04T17:01:50.583Z,38.30
2017-06-04T17:04:23.571Z,46.60
2017-06-04T17:06:56.456Z,44.10
2017-06-04T17:09:29.148Z,44.30
2017-06-04T17:12:02.015Z,47.50
2017-06-04T17:14:34.916Z,50.10
2017-06-04T17:17:08.511Z,51.50
2017-06-04T17:19:40.931Z,43.00
2017-06-04T17:22:13.792Z,47.40
2017-06-04T17:24:46.640Z,46.80
2017-06-04T17:27:16.989Z,45.00
2017-06-04T17:29:49.559Z,48.90
2017-06-04T17:32:22.015Z,48.50
2017-06-04T17:34:54.495Z,51.00
2017-06-04T17:37:27.408Z,50.00
2017-06-04T17:40:00.355Z,45.40
2017-06-04T17:42:33.359Z,50.90
2017-06-04T17:45:06.552Z,44.90
2017-06-04T17:47:39.543Z,46.20
2017-06-04T17:50:12.663Z,51.40
2017-06-04T17:52:45.439Z,53.30
2017-06-04T17:55:18.366Z,51.00
2017-06-04T17:57:51.411Z,46.00
2017-06-04T18:00:24.492Z,50.80
2017-06-04T18:02:57.117Z,48.50
2017-06-04T18:05:30.073Z,50.60
2017-06-04T18:08:02.935Z,50.60
2017-06-04T18:10:35.924Z,51.90
2017-06-04T18:13:08.441Z,52.20
2017-06-04T18:15:41.511Z,52.80
2017-06-04T18:18:14.307Z,52.70
2017-06-04T18:20:47.403Z,51.80
2017-06-04T18:23:19.640Z,53.30
2017-06-04T18:25:52.755Z,53.00
2017-06-04T18:28:25.777Z,53.80
2017-06-04T18:30:58.699Z,53.00
2017-06-04T18:33:31.696Z,53.80
2017-06-04T18:36:04.636Z,53.60
2017-06-04T18:38:38.051Z,54.00
2017-06-04T18:41:08.021Z,54.50
2017-06-04T18:43:40.336Z,54.50
2017-06-04T18:46:13.478Z,57.00
2017-06-04T18:48:46.284Z,56.60
2017-06-04T18:51:19.443Z,56.70
2017-06-04T18:53:53.265Z,57.20
2017-06-04T18:56:25.951Z,58.20
2017-06-04T18:58:58.747Z,59.20
2017-06-04T19:01:31.575Z,57.30
2017-06-04T19:04:04.472Z,57.60
2017-06-04T19:06:37.444Z,58.10
2017-06-04T19:09:10.559Z,58.30
2017-06-04T19:11:43.616Z,57.60
2017-06-04T19:14:16.628Z,58.20
2017-06-04T19:16:49.753Z,57.30
2017-06-04T19:19:22.677Z,58.30
2017-06-04T19:21:55.334Z,59.20
2017-06-04T19:24:28.419Z,59.90
2017-06-04T19:27:01.348Z,58.40
2017-06-04T19:29:34.189Z,57.60
2017-06-04T19:32:07.752Z,57.30
2017-06-04T19:34:40.077Z,57.30
2017-06-04T19:37:13.100Z,58.10
2017-06-04T19:39:45.827Z,58.30
2017-06-04T19:42:18.748Z,59.00
2017-06-04T19:44:51.507Z,59.10
2017-06-04T19:47:24.449Z,59.30
2017-06-04T19:49:57.363Z,59.70
2017-06-04T19:52:29.881Z,58.90
2017-06-04T19:55:02.743Z,59.10
2017-06-04T19:57:35.752Z,58.50
2017-06-04T20:00:08.652Z,58.60
2017-06-04T20:02:43.529Z,58.20
2017-06-04T20:05:13.518Z,60.10
2017-06-04T20:07:46.495Z,57.70
2017-06-04T20:10:16.264Z,57.00
2017-06-04T20:12:48.949Z,58.10
2017-06-04T20:15:21.887Z,59.30
2017-06-04T20:17:52.364Z,58.80
2017-06-04T20:20:25.600Z,60.00
2017-06-04T20:22:58.238Z,62.20
2017-06-04T20:25:31.136Z,60.80
2017-06-04T20:28:04.233Z,59.90
2017-06-04T20:30:34.329Z,59.90
2017-06-04T20:33:04.473Z,61.30
2017-06-04T20:35:34.532Z,60.60
2017-06-04T20:38:08.093Z,61.00
2017-06-04T20:40:44.582Z,60.70
2017-06-04T20:43:17.332Z,61.00
2017-06-04T20:45:50.184Z,61.80
2017-06-04T20:48:23.266Z,61.20
2017-06-04T20:50:56.125Z,63.20
2017-06-04T20:53:29.600Z,62.00
2017-06-04T20:56:01.994Z,63.80
2017-06-04T20:58:34.864Z,63.50
2017-06-04T21:01:08.168Z,63.00
2017-06-04T21:03:40.799Z,63.20
2017-06-04T21:06:14.172Z,63.50
2017-06-04T21:08:46.914Z,65.00
2017-06-04T21:11:19.944Z,64.50
2017-06-04T21:13:52.724Z,64.50
2017-06-04T21:16:25.543Z,64.50
2017-06-04T21:18:58.444Z,64.60
2017-06-04T21:21:31.247Z,64.60
2017-06-04T21:24:04.108Z,65.30
2017-06-04T21:26:36.744Z,65.70
2017-06-04T21:29:09.915Z,64.30
2017-06-04T21:31:42.554Z,66.10
2017-06-04T21:34:15.611Z,65.70
2017-06-04T21:36:48.419Z,68.30
2017-06-04T21:39:21.376Z,68.20
2017-06-04T21:41:54.276Z,68.20
2017-06-04T21:44:27.067Z,66.90
2017-06-04T21:46:59.725Z,68.30
2017-06-04T21:49:32.064Z,68.30
2017-06-04T21:52:04.888Z,68.20
2017-06-04T21:54:38.095Z,71.10
2017-06-04T21:57:10.928Z,71.50
2017-06-04T21:59:43.840Z,71.40
2017-06-04T22:02:16.835Z,70.90
2017-06-04T22:04:51.834Z,72.60
2017-06-04T22:07:24.888Z,72.90
2017-06-04T22:09:57.631Z,74.30
2017-06-04T22:12:30.488Z,75.70
2017-06-04T22:15:03.368Z,75.60
2017-06-04T22:17:36.580Z,76.90
2017-06-04T22:20:09.244Z,76.50
2017-06-04T22:22:42.119Z,77.40
2017-06-04T22:25:15.119Z,76.70
2017-06-04T22:27:47.803Z,77.30
2017-06-04T22:30:20.527Z,77.60
2017-06-04T22:32:53.627Z,77.90
2017-06-04T22:35:26.661Z,78.40
2017-06-04T22:37:59.652Z,79.00
2017-06-04T22:40:32.659Z,79.20
2017-06-04T22:43:05.584Z,79.60
2017-06-04T22:45:38.432Z,79.80
2017-06-04T22:48:11.494Z,80.60
2017-06-04T22:50:44.365Z,81.00
2017-06-04T22:53:17.428Z,81.00
2017-06-04T22:55:50.243Z,81.90
2017-06-04T22:58:23.245Z,82.00
2017-06-04T23:00:56.267Z,82.60
2017-06-04T23:03:29.439Z,83.00
2017-06-04T23:06:02.268Z,83.10
2017-06-04T23:08:35.168Z,83.00
2017-06-04T23:11:07.964Z,83.10
2017-06-04T23:13:40.803Z,84.00
2017-06-04T23:16:15.843Z,83.20
2017-06-04T23:18:48.391Z,84.30
2017-06-04T23:21:21.233Z,84.50
2017-06-04T23:23:54.094Z,84.70
2017-06-04T23:26:26.942Z,84.70
2017-06-04T23:28:59.564Z,84.70
2017-06-04T23:31:32.595Z,85.10
2017-06-04T23:34:05.484Z,86.20
2017-06-04T23:36:38.584Z,85.50
2017-06-04T23:39:08.460Z,85.40
2017-06-04T23:41:41.135Z,85.30
2017-06-04T23:44:14.068Z,86.00
2017-06-04T23:46:46.735Z,86.80
2017-06-04T23:49:19.632Z,88.10
2017-06-04T23:51:52.429Z,87.70
2017-06-04T23:54:25.145Z,88.70
2017-06-04T23:56:55.236Z,88.80
2017-06-04T23:59:28.012Z,88.80
